Barada, Nebraska
Current Conditions -  °F | °C
As of 7:05 PM on Thursday 18 Dec 2014 (Local Time) from KFNB Reporting Station
Overcast Overcast  
Wind Chill: 30°   Ceiling: 800
Heat Index: 30°   Visibility: 8mi
Dew Point: 26°   Wind: 0mph
Humidity: 85%   Direction: NA
Pressure: 30.23"   Gusts: NA
Location:  40.1276°N, 95.5661°W
Report Text: KFNB 190105Z AUTO 00000KT 8SM BKN008 OVC019 M01/M03 A3023 RMK AO2 T10111033
Loading
Personal Weather Stations






























Interactive Weather Map New forecast layout! Learn more

10-Day Weather Forecast

Advertisements
Track Severe Weather on mobile